Time;durP1;ratioP1;P1;durP2;ratioP2;P2;SDS_P1;SDS_P2;PMS_P1;PMS_P2;Temp;Humidity;BMP_temperature;BMP_pressure;BME280_temperature;BME280_humidity;BME280_pressure;Samples;Min_cycle;Max_cycle;Signal;HPM_P1;HPM_P2
2023/03/07 00:00:34;;;;;;;109.60;39.75;;;3.10;99.90;;;;;;5039172;28;20049;-72
2023/03/07 00:03:00;;;;;;;104.35;40.70;;;3.10;99.90;;;;;;5042315;28;20029;-72
2023/03/07 00:05:26;;;;;;;120.07;42.92;;;3.10;99.90;;;;;;5042042;28;20038;-71
2023/03/07 00:07:51;;;;;;;133.60;49.50;;;3.00;99.90;;;;;;5041585;28;20026;-73
2023/03/07 00:10:17;;;;;;;129.13;48.58;;;3.00;99.90;;;;;;5042380;28;20025;-73
2023/03/07 00:12:43;;;;;;;142.80;49.30;;;3.00;99.90;;;;;;5040110;28;20010;-71
2023/03/07 00:15:09;;;;;;;140.68;50.83;;;3.00;99.90;;;;;;5040005;28;20044;-73
2023/03/07 00:17:38;;;;;;;129.75;48.00;;;3.10;99.90;;;;;;5039746;28;20029;-72
2023/03/07 00:20:10;;;;;;;106.82;39.15;;;3.00;99.90;;;;;;5039954;28;20051;-74
2023/03/07 00:22:36;;;;;;;106.70;39.33;;;3.00;99.90;;;;;;5041826;28;20057;-72
2023/03/07 00:25:03;;;;;;;113.82;42.88;;;3.00;99.90;;;;;;5041273;28;20053;-70
2023/03/07 00:27:30;;;;;;;102.85;37.58;;;3.10;99.90;;;;;;5040095;28;20057;-73
2023/03/07 00:29:56;;;;;;;94.28;37.13;;;3.00;99.90;;;;;;5039835;28;20577;-71
2023/03/07 00:32:22;;;;;;;105.57;38.53;;;3.00;99.90;;;;;;5041657;28;20041;-74
2023/03/07 00:34:47;;;;;;;97.82;37.00;;;2.90;99.90;;;;;;5039985;28;20451;-73
2023/03/07 00:37:14;;;;;;;93.40;34.10;;;2.90;99.90;;;;;;5039934;28;20021;-72
2023/03/07 00:39:42;;;;;;;99.28;38.42;;;2.90;99.90;;;;;;5040355;28;21119;-73
2023/03/07 00:42:08;;;;;;;97.15;36.00;;;2.90;99.90;;;;;;5040507;28;20132;-75
2023/03/07 00:44:34;;;;;;;90.65;33.50;;;2.90;99.90;;;;;;5039516;28;20068;-76
2023/03/07 00:47:00;;;;;;;99.72;35.13;;;2.90;99.90;;;;;;5041069;28;20021;-73
2023/03/07 00:49:25;;;;;;;104.45;35.92;;;2.90;99.90;;;;;;5040124;28;20083;-73
2023/03/07 00:51:51;;;;;;;106.38;37.95;;;2.90;99.90;;;;;;5040823;28;20044;-74
2023/03/07 00:54:17;;;;;;;99.68;35.67;;;2.80;99.90;;;;;;5037967;28;20037;-73
2023/03/07 00:56:43;;;;;;;75.65;28.42;;;2.80;99.90;;;;;;5040957;28;20029;-73
2023/03/07 00:59:09;;;;;;;93.80;36.10;;;2.80;99.90;;;;;;5041295;28;20029;-74
2023/03/07 01:01:35;;;;;;;98.55;34.55;;;2.80;99.90;;;;;;5038644;28;20037;-73
2023/03/07 01:04:01;;;;;;;72.85;24.13;;;2.80;99.90;;;;;;5040565;28;20013;-72
2023/03/07 01:06:29;;;;;;;88.18;32.97;;;2.80;99.90;;;;;;5041059;28;20501;-71
2023/03/07 01:08:57;;;;;;;94.30;33.92;;;2.80;99.90;;;;;;5040018;28;20044;-74
2023/03/07 01:11:23;;;;;;;87.68;30.85;;;2.70;99.90;;;;;;5039675;28;20029;-73
2023/03/07 01:13:49;;;;;;;84.80;33.10;;;2.70;99.90;;;;;;5040654;28;20453;-74
2023/03/07 01:16:18;;;;;;;95.40;32.70;;;2.70;99.90;;;;;;5040362;28;20056;-73
2023/03/07 01:18:47;;;;;;;76.85;30.80;;;2.70;99.90;;;;;;5038776;28;20116;-74
2023/03/07 01:21:22;;;;;;;98.93;32.88;;;2.80;99.90;;;;;;5039093;28;20041;-71
2023/03/07 01:23:49;;;;;;;98.10;33.25;;;2.70;99.90;;;;;;5039527;28;20033;-74
2023/03/07 01:26:17;;;;;;;77.18;29.08;;;2.60;99.90;;;;;;5038831;28;20038;-73
2023/03/07 01:28:42;;;;;;;90.13;34.50;;;2.70;99.90;;;;;;5037473;28;20071;-75
2023/03/07 01:31:08;;;;;;;101.40;36.00;;;2.70;99.90;;;;;;5039017;28;20096;-73
2023/03/07 01:33:33;;;;;;;77.78;28.23;;;2.60;99.90;;;;;;5040351;28;20021;-75
2023/03/07 01:35:59;;;;;;;96.22;33.63;;;2.60;99.90;;;;;;5040797;28;20033;-72
2023/03/07 01:38:25;;;;;;;85.47;31.55;;;2.60;99.90;;;;;;5041064;28;20030;-74
2023/03/07 01:40:50;;;;;;;86.25;31.90;;;2.60;99.90;;;;;;5041010;28;20029;-75
2023/03/07 01:43:23;;;;;;;96.40;33.25;;;2.60;99.90;;;;;;5041281;28;20107;-73
2023/03/07 01:45:49;;;;;;;77.23;28.47;;;2.70;99.90;;;;;;5040870;28;20036;-74
2023/03/07 01:48:14;;;;;;;73.50;25.88;;;2.70;99.90;;;;;;5039280;28;20029;-75
2023/03/07 01:50:41;;;;;;;89.82;30.70;;;2.70;99.90;;;;;;5041046;28;20029;-73
2023/03/07 01:53:08;;;;;;;93.28;30.77;;;2.70;99.90;;;;;;5039797;28;20033;-73
2023/03/07 01:55:35;;;;;;;79.72;27.80;;;2.70;99.90;;;;;;5039499;28;20072;-72
2023/03/07 01:58:05;;;;;;;82.35;29.63;;;2.70;99.90;;;;;;5039265;28;20022;-72
2023/03/07 02:00:35;;;;;;;69.78;25.40;;;2.70;99.90;;;;;;5040769;28;20029;-72
2023/03/07 02:03:00;;;;;;;76.15;27.05;;;2.70;99.90;;;;;;5039528;28;20060;-75
2023/03/07 02:05:33;;;;;;;69.32;26.45;;;2.80;99.90;;;;;;5038588;28;20017;-73
2023/03/07 02:08:01;;;;;;;71.82;27.23;;;2.70;99.90;;;;;;5039355;28;20022;-70
2023/03/07 02:10:29;;;;;;;61.88;23.63;;;2.80;99.90;;;;;;5039537;28;20018;-71
2023/03/07 02:12:55;;;;;;;49.75;19.25;;;2.80;99.90;;;;;;5037355;28;20088;-74
2023/03/07 02:15:20;;;;;;;60.63;22.13;;;2.80;99.90;;;;;;5040236;28;20049;-73
2023/03/07 02:17:46;;;;;;;56.28;20.90;;;2.80;99.90;;;;;;5037797;28;20080;-72
2023/03/07 02:20:41;;;;;;;62.60;22.13;;;2.80;99.90;;;;;;5039926;28;20033;-72
2023/03/07 02:23:12;;;;;;;55.97;19.92;;;2.80;99.90;;;;;;5039357;28;20079;-74
2023/03/07 02:25:51;;;;;;;57.75;20.13;;;2.90;99.90;;;;;;5039432;28;20026;-71
2023/03/07 02:28:18;;;;;;;52.30;18.90;;;2.90;99.90;;;;;;5037560;28;20084;-72
2023/03/07 02:31:03;;;;;;;57.28;21.48;;;2.90;99.90;;;;;;5039933;28;20161;-72
2023/03/07 02:33:29;;;;;;;55.00;19.23;;;2.90;99.90;;;;;;5039642;28;20041;-72
2023/03/07 02:36:03;;;;;;;50.50;18.58;;;2.90;99.90;;;;;;5038991;28;20029;-72
2023/03/07 02:38:31;;;;;;;;;;;3.00;99.90;;;;;;5038749;28;20026;-72
2023/03/07 02:40:57;;;;;;;51.58;18.88;;;3.00;99.90;;;;;;5038767;28;19916;-72
2023/03/07 02:43:23;;;;;;;42.70;16.75;;;3.00;99.90;;;;;;5039575;28;20025;-73
2023/03/07 02:45:49;;;;;;;47.03;16.77;;;3.00;99.90;;;;;;5040030;28;20044;-74
2023/03/07 02:48:15;;;;;;;42.22;17.23;;;2.90;99.90;;;;;;5039027;28;20033;-73
2023/03/07 02:50:40;;;;;;;41.38;15.23;;;3.10;99.90;;;;;;5039830;28;20035;-72
2023/03/07 02:53:06;;;;;;;44.97;16.58;;;3.00;99.90;;;;;;5039153;28;20037;-69
2023/03/07 02:55:32;;;;;;;38.88;14.77;;;3.00;99.90;;;;;;5039505;28;20461;-72
2023/03/07 02:57:58;;;;;;;39.85;15.45;;;3.00;99.90;;;;;;5037930;28;20422;-74
2023/03/07 03:00:24;;;;;;;39.83;15.15;;;3.00;99.90;;;;;;5039097;28;20018;-73
2023/03/07 03:02:50;;;;;;;34.58;12.68;;;3.00;99.90;;;;;;5038907;28;20033;-72
2023/03/07 03:05:15;;;;;;;34.60;13.18;;;3.00;99.90;;;;;;5038227;28;20024;-71
2023/03/07 03:07:41;;;;;;;34.42;13.93;;;3.00;99.90;;;;;;5039375;28;20044;-72
2023/03/07 03:10:07;;;;;;;34.05;12.63;;;3.00;99.90;;;;;;5039225;28;20040;-73
2023/03/07 03:12:32;;;;;;;24.60;9.05;;;3.00;99.90;;;;;;5039252;28;20029;-72
2023/03/07 03:14:58;;;;;;;41.85;12.32;;;3.00;99.90;;;;;;5039372;28;20025;-72
2023/03/07 03:17:24;;;;;;;24.52;9.68;;;3.10;99.90;;;;;;5039242;28;20457;-72
2023/03/07 03:19:49;;;;;;;25.52;10.35;;;3.00;99.90;;;;;;5037194;28;20038;-73
2023/03/07 03:22:15;;;;;;;29.92;10.63;;;3.00;99.90;;;;;;5037919;28;20049;-70
2023/03/07 03:24:42;;;;;;;23.77;9.07;;;3.00;99.90;;;;;;5039710;28;20083;-71
2023/03/07 03:27:08;;;;;;;28.05;9.48;;;3.00;99.90;;;;;;5042843;28;20095;-71
2023/03/07 03:29:34;;;;;;;22.92;8.50;;;3.00;99.90;;;;;;5042711;28;20025;-71
2023/03/07 03:32:00;;;;;;;30.23;8.70;;;3.00;99.90;;;;;;5042396;28;20018;-70
2023/03/07 03:34:25;;;;;;;21.80;6.65;;;3.00;99.90;;;;;;5042578;28;20044;-72
2023/03/07 03:36:51;;;;;;;21.05;7.65;;;3.00;99.90;;;;;;5041445;28;20096;-73
2023/03/07 03:39:17;;;;;;;21.45;7.70;;;3.00;99.90;;;;;;5042112;28;20397;-73
2023/03/07 03:41:42;;;;;;;19.85;7.32;;;2.90;99.90;;;;;;5042760;28;20033;-72
2023/03/07 03:44:08;;;;;;;21.10;7.15;;;2.90;99.90;;;;;;5040605;28;20512;-72
2023/03/07 03:46:34;;;;;;;22.35;5.53;;;2.90;99.90;;;;;;5041077;28;20025;-72
2023/03/07 03:49:00;;;;;;;16.48;5.15;;;2.90;99.90;;;;;;5042357;28;20040;-70
2023/03/07 03:51:26;;;;;;;18.77;5.97;;;2.80;99.90;;;;;;5043038;28;20731;-72
2023/03/07 03:53:52;;;;;;;13.48;4.35;;;2.80;99.90;;;;;;5041253;28;20029;-71
2023/03/07 03:56:22;;;;;;;22.15;4.85;;;2.80;99.90;;;;;;5041518;28;20025;-72
2023/03/07 03:58:50;;;;;;;18.33;3.78;;;2.80;99.90;;;;;;5043231;28;20026;-74
2023/03/07 04:01:17;;;;;;;16.23;4.95;;;2.80;99.90;;;;;;5041914;28;20044;-72
2023/03/07 04:03:45;;;;;;;21.45;4.38;;;2.80;99.90;;;;;;5042147;28;20053;-71
2023/03/07 04:06:17;;;;;;;16.50;4.38;;;2.80;99.90;;;;;;5041530;28;20036;-72
2023/03/07 04:08:43;;;;;;;10.75;4.07;;;2.80;99.90;;;;;;5043210;28;20045;-73
2023/03/07 04:11:09;;;;;;;17.65;3.80;;;2.80;99.90;;;;;;5040742;28;20871;-72
2023/03/07 04:13:35;;;;;;;18.23;3.95;;;2.80;99.90;;;;;;5041311;28;20087;-73
2023/03/07 04:16:01;;;;;;;8.77;3.63;;;2.80;99.90;;;;;;5042406;28;20038;-73
2023/03/07 04:18:27;;;;;;;14.95;3.97;;;2.80;99.90;;;;;;5041048;28;20098;-72
2023/03/07 04:20:53;;;;;;;10.60;3.50;;;2.80;99.90;;;;;;5040925;28;20030;-72
2023/03/07 04:23:20;;;;;;;12.50;3.53;;;2.80;99.90;;;;;;5041624;28;20033;-74
2023/03/07 04:25:56;;;;;;;10.60;2.83;;;2.80;99.90;;;;;;5041506;28;20052;-71
2023/03/07 04:28:24;;;;;;;19.98;3.83;;;2.80;99.90;;;;;;5040877;28;20049;-74
2023/03/07 04:30:51;;;;;;;8.05;2.58;;;2.80;99.90;;;;;;5039838;28;20036;-72
2023/03/07 04:33:17;;;;;;;14.15;3.20;;;2.80;99.90;;;;;;5042530;28;20025;-76
2023/03/07 04:35:44;;;;;;;20.02;3.83;;;2.80;99.90;;;;;;5040688;28;20052;-75
2023/03/07 04:38:11;;;;;;;12.07;3.33;;;2.80;99.90;;;;;;5040832;28;21531;-72
2023/03/07 04:40:36;;;;;;;13.45;3.10;;;2.80;99.90;;;;;;5041548;28;20052;-72
2023/03/07 04:43:04;;;;;;;12.23;2.95;;;2.80;99.90;;;;;;5040627;28;20057;-73
2023/03/07 04:45:33;;;;;;;20.17;3.25;;;2.80;99.90;;;;;;5040629;28;20025;-72
2023/03/07 04:47:59;;;;;;;15.50;3.13;;;2.80;99.90;;;;;;5039688;28;21107;-71
2023/03/07 04:50:25;;;;;;;12.48;3.35;;;2.70;99.90;;;;;;5040599;28;20041;-73
2023/03/07 04:52:50;;;;;;;14.45;2.65;;;2.70;99.90;;;;;;5041972;28;20048;-72
2023/03/07 04:55:16;;;;;;;9.35;2.70;;;2.70;99.90;;;;;;5042365;28;20087;-73
2023/03/07 04:57:42;;;;;;;12.43;3.58;;;2.70;99.90;;;;;;5040947;28;20048;-71
2023/03/07 05:00:08;;;;;;;11.20;3.20;;;2.70;99.90;;;;;;5040522;28;20053;-71
2023/03/07 05:02:35;;;;;;;10.60;2.00;;;2.70;99.90;;;;;;5040357;28;20086;-73
2023/03/07 05:05:01;;;;;;;18.30;2.92;;;2.70;99.90;;;;;;5040918;28;20018;-71
2023/03/07 05:07:28;;;;;;;15.00;2.38;;;2.70;99.90;;;;;;5040432;28;20028;-72
2023/03/07 05:09:54;;;;;;;10.73;2.15;;;2.70;99.90;;;;;;5041295;28;20117;-72
2023/03/07 05:12:20;;;;;;;9.13;2.10;;;2.70;99.90;;;;;;5040617;28;20033;-73
2023/03/07 05:14:46;;;;;;;17.73;2.55;;;2.70;99.90;;;;;;5041285;28;20029;-78
2023/03/07 05:17:12;;;;;;;12.65;2.38;;;2.60;99.90;;;;;;5040532;28;20032;-72
2023/03/07 05:19:37;;;;;;;14.77;2.28;;;2.60;99.90;;;;;;5041190;28;20019;-74
2023/03/07 05:22:03;;;;;;;11.40;2.45;;;2.60;99.90;;;;;;5039762;28;20079;-74
2023/03/07 05:24:29;;;;;;;10.80;2.05;;;2.60;99.90;;;;;;5039897;28;20025;-72
2023/03/07 05:26:57;;;;;;;16.75;2.00;;;2.60;99.90;;;;;;5041228;28;20046;-70
2023/03/07 05:29:23;;;;;;;14.63;2.72;;;2.60;99.90;;;;;;5040827;28;20026;-71
2023/03/07 05:31:48;;;;;;;8.55;1.60;;;2.60;99.90;;;;;;5041238;28;20026;-71
2023/03/07 05:34:15;;;;;;;8.02;1.65;;;2.60;99.90;;;;;;5041477;28;20041;-74
2023/03/07 05:36:41;;;;;;;12.40;2.33;;;2.60;99.90;;;;;;5039001;28;20021;-70
2023/03/07 05:39:07;;;;;;;14.45;2.63;;;2.60;99.90;;;;;;5040074;28;20040;-72
2023/03/07 05:41:33;;;;;;;16.95;2.05;;;2.60;99.90;;;;;;5039369;28;20048;-71
2023/03/07 05:43:58;;;;;;;11.18;1.83;;;2.60;99.90;;;;;;5040939;28;20025;-72
2023/03/07 05:46:24;;;;;;;10.95;1.83;;;2.50;99.90;;;;;;5039127;28;20025;-71
2023/03/07 05:48:50;;;;;;;15.88;2.33;;;2.60;99.90;;;;;;5041587;28;20022;-73
2023/03/07 05:51:15;;;;;;;12.50;2.40;;;2.50;99.90;;;;;;5041170;28;20471;-74
2023/03/07 05:53:42;;;;;;;14.93;1.92;;;2.50;99.90;;;;;;5040786;28;20052;-71
2023/03/07 05:56:08;;;;;;;8.93;1.55;;;2.50;99.90;;;;;;5037864;28;20044;-69
2023/03/07 05:58:33;;;;;;;21.55;2.08;;;2.50;99.90;;;;;;5040970;28;20044;-73
2023/03/07 06:01:01;;;;;;;15.93;1.80;;;2.50;99.90;;;;;;5040890;28;20056;-73
2023/03/07 06:03:27;;;;;;;11.30;2.00;;;2.50;99.90;;;;;;5039311;28;20056;-73
2023/03/07 06:05:53;;;;;;;11.27;2.05;;;2.50;99.90;;;;;;5039202;28;20018;-72
2023/03/07 06:08:18;;;;;;;18.10;1.90;;;2.50;99.90;;;;;;5038888;28;20137;-71
2023/03/07 06:10:48;;;;;;;10.77;1.65;;;2.50;99.90;;;;;;5040178;28;20514;-72
2023/03/07 06:13:17;;;;;;;8.25;1.40;;;2.50;99.90;;;;;;5039751;28;20109;-72
2023/03/07 06:15:43;;;;;;;13.82;1.80;;;2.50;99.90;;;;;;5040106;28;20139;-72
2023/03/07 06:18:09;;;;;;;12.27;1.75;;;2.50;99.90;;;;;;5040521;28;20065;-70
2023/03/07 06:20:35;;;;;;;9.85;1.45;;;2.60;99.90;;;;;;5039837;28;20029;-70
2023/03/07 06:23:01;;;;;;;17.45;1.48;;;2.60;99.90;;;;;;5039231;28;20103;-70
2023/03/07 06:25:27;;;;;;;18.65;1.70;;;2.60;99.90;;;;;;5039408;28;20021;-73
2023/03/07 06:27:58;;;;;;;11.75;1.88;;;2.60;99.90;;;;;;5040446;28;20087;-71
2023/03/07 06:30:24;;;;;;;7.80;1.50;;;2.60;99.90;;;;;;5040209;28;20406;-74
2023/03/07 06:32:49;;;;;;;12.48;1.70;;;2.70;99.90;;;;;;5040573;28;20040;-71
2023/03/07 06:35:15;;;;;;;14.82;1.63;;;2.70;99.90;;;;;;5040369;28;20040;-70
2023/03/07 06:37:41;;;;;;;14.57;1.48;;;2.70;99.90;;;;;;5040524;28;20026;-72
2023/03/07 06:40:08;;;;;;;6.80;1.55;;;2.70;99.90;;;;;;5040171;28;20485;-70
2023/03/07 06:42:34;;;;;;;13.20;1.58;;;2.70;99.90;;;;;;5039686;28;20127;-71
2023/03/07 06:44:59;;;;;;;9.65;1.55;;;2.70;99.90;;;;;;5040943;28;20216;-70
2023/03/07 06:47:25;;;;;;;15.98;1.58;;;2.80;99.90;;;;;;5039531;28;20033;-73
2023/03/07 06:49:51;;;;;;;9.95;1.33;;;2.80;99.90;;;;;;5040102;28;20056;-71
2023/03/07 06:52:16;;;;;;;16.55;2.53;;;2.80;99.90;;;;;;5039703;28;20022;-70
2023/03/07 06:54:42;;;;;;;12.68;1.75;;;2.90;99.90;;;;;;5040431;28;20026;-71
2023/03/07 06:57:07;;;;;;;10.43;1.95;;;2.90;99.90;;;;;;5040594;28;20037;-71
2023/03/07 06:59:33;;;;;;;11.98;1.50;;;2.90;99.90;;;;;;5041681;28;20429;-72
2023/03/07 07:02:01;;;;;;;12.75;1.80;;;2.90;99.90;;;;;;5044492;28;20043;-74
2023/03/07 07:04:27;;;;;;;14.18;1.42;;;3.00;99.90;;;;;;5043749;28;20455;-72
2023/03/07 07:06:53;;;;;;;9.35;1.33;;;3.00;99.90;;;;;;5044524;28;20060;-72
2023/03/07 07:09:19;;;;;;;12.88;1.70;;;3.00;99.90;;;;;;5043196;28;20064;-71
2023/03/07 07:11:44;;;;;;;16.77;1.95;;;3.00;99.90;;;;;;5044027;28;20025;-69
2023/03/07 07:14:10;;;;;;;10.48;1.40;;;3.00;99.90;;;;;;5043140;28;20112;-71
2023/03/07 07:16:36;;;;;;;6.60;1.38;;;3.10;99.90;;;;;;5043909;28;20075;-70
2023/03/07 07:19:01;;;;;;;11.15;1.27;;;3.10;99.90;;;;;;5044194;28;20037;-71
2023/03/07 07:21:27;;;;;;;7.10;1.30;;;3.20;99.90;;;;;;5044140;28;20041;-70
2023/03/07 07:23:56;;;;;;;10.27;1.58;;;3.20;99.90;;;;;;5044251;28;20086;-70
2023/03/07 07:26:23;;;;;;;6.10;1.55;;;3.20;99.90;;;;;;5043356;28;20026;-72
2023/03/07 07:28:48;;;;;;;11.82;1.23;;;3.20;99.90;;;;;;5041089;28;20097;-68
2023/03/07 07:31:14;;;;;;;14.25;1.98;;;3.20;99.90;;;;;;5042998;28;20072;-69
2023/03/07 07:33:40;;;;;;;9.88;1.48;;;3.30;99.90;;;;;;5042302;28;20026;-69
2023/03/07 07:36:07;;;;;;;13.70;1.40;;;3.20;99.90;;;;;;5043485;28;21014;-71
2023/03/07 07:38:32;;;;;;;16.20;2.05;;;3.20;99.90;;;;;;5041699;28;20048;-67
2023/03/07 07:40:58;;;;;;;16.92;2.03;;;3.30;99.90;;;;;;5042390;28;20052;-70
2023/03/07 07:43:24;;;;;;;11.20;1.65;;;3.30;99.90;;;;;;5042445;28;20029;-70
2023/03/07 07:45:50;;;;;;;6.65;1.23;;;3.30;99.90;;;;;;5041799;28;20045;-70
2023/03/07 07:48:16;;;;;;;12.25;1.35;;;3.30;99.90;;;;;;5043835;28;20032;-70
2023/03/07 07:50:41;;;;;;;9.82;2.15;;;3.40;99.90;;;;;;5041518;28;20049;-70
2023/03/07 07:53:07;;;;;;;13.18;1.73;;;3.40;99.90;;;;;;5042338;28;20112;-70
2023/03/07 07:55:32;;;;;;;8.30;1.80;;;3.40;99.90;;;;;;5042850;28;20433;-71
2023/03/07 07:57:58;;;;;;;19.02;1.65;;;3.40;99.90;;;;;;5040197;28;20022;-72
2023/03/07 08:00:24;;;;;;;9.02;1.90;;;3.40;99.90;;;;;;5042894;28;20329;-72
2023/03/07 08:02:50;;;;;;;7.28;1.52;;;3.40;99.90;;;;;;5043322;28;20048;-71
2023/03/07 08:05:17;;;;;;;12.65;2.10;;;3.30;99.90;;;;;;5042961;28;20041;-74
2023/03/07 08:07:44;;;;;;;12.63;1.58;;;3.30;99.90;;;;;;5043534;28;20120;-71
2023/03/07 08:10:14;;;;;;;8.50;1.15;;;3.30;99.90;;;;;;5042624;28;20017;-71
2023/03/07 08:12:44;;;;;;;14.75;1.70;;;3.30;99.90;;;;;;5041919;28;20026;-69
2023/03/07 08:15:10;;;;;;;9.00;1.33;;;3.20;99.90;;;;;;5042670;28;20036;-70
2023/03/07 08:17:36;;;;;;;16.33;2.00;;;3.20;99.90;;;;;;5041287;28;20026;-71
2023/03/07 08:20:08;;;;;;;13.25;1.88;;;3.20;99.90;;;;;;5043245;28;20025;-71
2023/03/07 08:22:38;;;;;;;13.35;1.83;;;3.30;99.90;;;;;;5042896;28;20045;-71
2023/03/07 08:25:09;;;;;;;10.32;1.85;;;3.30;99.90;;;;;;5042756;28;20462;-70
2023/03/07 08:27:34;;;;;;;9.98;1.63;;;3.30;99.90;;;;;;5042600;28;20054;-72
2023/03/07 08:30:00;;;;;;;8.27;1.60;;;3.30;99.90;;;;;;5041734;28;20036;-71
2023/03/07 08:32:27;;;;;;;14.88;1.60;;;3.30;99.90;;;;;;5042915;28;20033;-74
2023/03/07 08:34:52;;;;;;;12.63;1.73;;;3.40;99.90;;;;;;5040718;28;20018;-71
2023/03/07 08:37:18;;;;;;;12.02;1.60;;;3.40;99.90;;;;;;5041869;28;20025;-68
2023/03/07 08:39:44;;;;;;;15.88;2.03;;;3.50;99.90;;;;;;5041909;28;20037;-71
2023/03/07 08:42:09;;;;;;;14.85;1.80;;;3.50;99.90;;;;;;5042354;28;20112;-71
2023/03/07 08:44:35;;;;;;;16.02;2.05;;;3.60;99.90;;;;;;5039656;28;20033;-73
2023/03/07 08:47:00;;;;;;;19.17;1.45;;;3.60;99.90;;;;;;5042084;28;20037;-70
2023/03/07 08:49:26;;;;;;;13.50;1.45;;;3.70;99.90;;;;;;5040391;28;20034;-71
2023/03/07 08:51:51;;;;;;;12.82;1.48;;;3.70;99.90;;;;;;5041281;28;20029;-70
2023/03/07 08:54:17;;;;;;;15.77;2.05;;;3.80;99.90;;;;;;5036486;28;20041;-72
2023/03/07 08:56:43;;;;;;;16.08;2.13;;;3.80;99.90;;;;;;5037810;28;20059;-72
2023/03/07 08:59:08;;;;;;;13.55;2.00;;;3.90;99.90;;;;;;5040352;28;20025;-69
2023/03/07 09:01:34;;;;;;;15.65;3.85;;;3.90;99.90;;;;;;5040802;28;20038;-68
2023/03/07 09:03:59;;;;;;;13.48;1.88;;;3.90;99.90;;;;;;5042009;28;20508;-71
2023/03/07 09:06:25;;;;;;;14.77;1.67;;;3.90;99.90;;;;;;5041238;28;20033;-71
2023/03/07 09:08:51;;;;;;;11.77;2.20;;;3.90;99.90;;;;;;5041676;28;20029;-73
2023/03/07 09:11:17;;;;;;;7.30;0.95;;;3.90;99.90;;;;;;5042200;28;20107;-69
2023/03/07 09:13:43;;;;;;;8.20;1.42;;;3.90;99.90;;;;;;5041162;28;20083;-71
2023/03/07 09:16:09;;;;;;;6.35;1.35;;;4.00;99.90;;;;;;5040286;28;20026;-69
2023/03/07 09:18:35;;;;;;;12.55;1.88;;;4.10;99.90;;;;;;5040562;28;20029;-69
2023/03/07 09:21:04;;;;;;;11.40;1.65;;;4.10;99.90;;;;;;5040764;28;20037;-70
2023/03/07 09:23:30;;;;;;;10.20;1.38;;;4.10;99.90;;;;;;5037388;28;20391;-69
2023/03/07 09:26:04;;;;;;;10.23;1.42;;;4.10;99.90;;;;;;5040926;28;20040;-71
2023/03/07 09:28:31;;;;;;;11.77;1.20;;;4.10;99.90;;;;;;5041461;28;20044;-71
2023/03/07 09:30:56;;;;;;;9.75;1.50;;;4.10;99.90;;;;;;5041171;28;21119;-71
2023/03/07 09:33:22;;;;;;;10.98;1.38;;;4.10;99.90;;;;;;5039992;28;20030;-72
2023/03/07 09:35:48;;;;;;;8.63;1.48;;;4.20;99.90;;;;;;5038294;28;20758;-70
2023/03/07 09:38:14;;;;;;;10.10;2.13;;;4.10;99.90;;;;;;5039186;28;20095;-71
2023/03/07 09:40:39;;;;;;;12.20;2.00;;;4.10;99.90;;;;;;5039474;28;20029;-71
2023/03/07 09:43:20;;;;;;;10.43;2.00;;;4.10;99.90;;;;;;5038902;28;20124;-72
2023/03/07 09:46:11;;;;;;;9.40;1.58;;;4.10;99.90;;;;;;5040606;28;20036;-71
2023/03/07 09:48:39;;;;;;;9.35;1.80;;;4.20;99.90;;;;;;5041239;28;20112;-69
2023/03/07 09:51:20;;;;;;;12.27;1.55;;;4.10;99.90;;;;;;5037255;28;20495;-70
2023/03/07 09:53:55;;;;;;;9.40;1.50;;;4.20;99.90;;;;;;5040002;28;20032;-70
2023/03/07 09:56:27;;;;;;;11.13;1.40;;;4.10;99.90;;;;;;5041391;28;20026;-70
2023/03/07 09:59:00;;;;;;;7.07;1.48;;;4.20;99.90;;;;;;5040584;28;20022;-70
2023/03/07 10:01:29;;;;;;;8.75;1.52;;;4.20;99.90;;;;;;5037814;28;20627;-70
2023/03/07 10:04:04;;;;;;;7.88;1.20;;;4.20;99.90;;;;;;5036948;28;20415;-71
2023/03/07 10:06:41;;;;;;;10.65;1.38;;;4.40;99.90;;;;;;5039499;28;20047;-69
2023/03/07 10:09:13;;;;;;;9.93;1.67;;;4.50;99.90;;;;;;5040475;28;20037;-69
2023/03/07 10:12:24;;;;;;;9.13;2.40;;;4.60;99.90;;;;;;5037589;28;20064;-72
2023/03/07 10:15:37;;;;;;;16.27;1.73;;;4.70;99.90;;;;;;5041119;28;20030;-72
2023/03/07 10:18:41;;;;;;;16.42;2.53;;;4.80;99.90;;;;;;5038899;28;20076;-69
2023/03/07 10:21:39;;;;;;;18.55;2.35;;;4.90;99.90;;;;;;5038283;28;20092;-70
2023/03/07 10:24:04;;;;;;;9.15;1.38;;;4.90;99.90;;;;;;5039279;28;20036;-69
2023/03/07 10:26:57;;;;;;;9.80;1.63;;;5.00;99.90;;;;;;5040496;28;20079;-71
2023/03/07 10:29:27;;;;;;;10.65;1.60;;;4.90;99.90;;;;;;5038856;28;20029;-69
2023/03/07 10:32:18;;;;;;;14.25;1.52;;;4.90;99.90;;;;;;5039868;28;20086;-69
2023/03/07 10:34:44;;;;;;;10.55;1.60;;;4.90;99.90;;;;;;5022115;28;20052;-70
2023/03/07 10:37:17;;;;;;;16.90;2.00;;;5.00;99.90;;;;;;5044576;28;20076;-72
2023/03/07 10:39:55;;;;;;;13.35;2.38;;;5.00;99.90;;;;;;5043241;28;20029;-69
2023/03/07 10:42:25;;;;;;;8.25;1.70;;;5.10;99.90;;;;;;5039344;28;20102;-69
2023/03/07 10:44:51;;;;;;;7.35;1.55;;;5.10;99.90;;;;;;5043424;28;20382;-70
2023/03/07 10:47:23;;;;;;;10.07;1.27;;;5.00;99.90;;;;;;5044747;28;20026;-71
2023/03/07 10:49:53;;;;;;;12.48;2.85;;;5.00;99.90;;;;;;5044567;28;20021;-69
2023/03/07 10:52:59;;;;;;;7.40;2.00;;;5.20;99.90;;;;;;5044729;28;20517;-72
2023/03/07 10:55:35;;;;;;;13.43;1.42;;;5.30;99.90;;;;;;5043115;28;20073;-70
2023/03/07 10:58:24;;;;;;;9.75;1.85;;;5.40;99.90;;;;;;5051645;28;20025;-70
2023/03/07 11:01:07;;;;;;;8.30;1.60;;;5.40;99.90;;;;;;5042151;28;20034;-71
2023/03/07 11:03:42;;;;;;;13.30;1.23;;;5.60;99.90;;;;;;5042947;28;20029;-71
2023/03/07 11:06:24;;;;;;;10.63;1.23;;;5.50;99.90;;;;;;5044495;28;20018;-70
2023/03/07 11:08:50;;;;;;;10.32;1.48;;;5.20;99.90;;;;;;5037961;28;20129;-71
2023/03/07 11:11:29;;;;;;;13.55;1.38;;;4.90;99.90;;;;;;5036581;28;20040;-70
2023/03/07 11:14:10;;;;;;;13.18;1.45;;;4.70;99.90;;;;;;5040734;28;20045;-72
2023/03/07 11:16:50;;;;;;;10.65;1.83;;;4.70;99.90;;;;;;5036992;28;20051;-70
2023/03/07 11:19:35;;;;;;;8.95;1.38;;;4.70;99.90;;;;;;5041539;28;20061;-71
2023/03/07 11:22:24;;;;;;;19.33;1.60;;;4.80;99.90;;;;;;5041130;28;20044;-70
2023/03/07 11:24:57;;;;;;;12.23;1.60;;;4.90;99.90;;;;;;5039506;28;20037;-69
2023/03/07 11:27:30;;;;;;;14.95;1.50;;;5.00;99.90;;;;;;5041042;28;20042;-69
2023/03/07 11:30:16;;;;;;;23.92;2.47;;;5.10;99.90;;;;;;5041389;28;20645;-69
2023/03/07 11:33:07;;;;;;;14.20;1.90;;;5.20;99.90;;;;;;5042007;28;20547;-71
2023/03/07 11:36:04;;;;;;;12.23;1.75;;;5.20;99.90;;;;;;5040929;28;20032;-70
2023/03/07 11:39:11;;;;;;;12.55;1.88;;;5.20;99.90;;;;;;5042835;28;20033;-69
2023/03/07 11:41:40;;;;;;;11.98;1.98;;;5.20;99.90;;;;;;5058026;28;20049;-71
2023/03/07 11:44:18;;;;;;;8.27;1.90;;;5.20;99.90;;;;;;5042150;28;20363;-70
2023/03/07 11:47:11;;;;;;;11.75;1.73;;;5.20;99.90;;;;;;5041006;28;20038;-70
2023/03/07 11:49:39;;;;;;;12.57;1.50;;;5.30;99.90;;;;;;5041032;28;20025;-68
2023/03/07 11:52:31;;;;;;;10.15;1.75;;;5.40;99.90;;;;;;5040959;28;20073;-69
2023/03/07 11:54:59;;;;;;;15.45;1.60;;;5.50;99.90;;;;;;5040364;28;20033;-71
2023/03/07 11:57:46;;;;;;;13.48;1.63;;;5.60;99.90;;;;;;5041715;28;20474;-71
2023/03/07 12:00:33;;;;;;;13.00;2.00;;;5.70;99.90;;;;;;5039134;28;20041;-72
2023/03/07 12:03:17;;;;;;;20.88;2.10;;;5.70;99.90;;;;;;5039202;28;20029;-70
2023/03/07 12:05:56;;;;;;;11.25;1.80;;;5.80;99.90;;;;;;5040530;28;20801;-69
2023/03/07 12:08:34;;;;;;;15.70;1.98;;;5.90;99.90;;;;;;5041098;28;20080;-73
2023/03/07 12:11:34;;;;;;;8.70;1.52;;;6.00;99.90;;;;;;5039411;28;20421;-70
2023/03/07 12:14:31;;;;;;;13.13;1.67;;;6.10;99.90;;;;;;5040326;28;20410;-72
2023/03/07 12:17:35;;;;;;;16.30;2.40;;;6.20;99.90;;;;;;5037564;28;20045;-69
2023/03/07 12:20:06;;;;;;;7.40;1.40;;;6.20;99.90;;;;;;5035805;28;20034;-70
2023/03/07 12:22:47;;;;;;;15.52;1.30;;;6.20;99.90;;;;;;5038450;28;20052;-70
2023/03/07 12:25:34;;;;;;;12.02;1.30;;;6.20;99.90;;;;;;5036710;28;20033;-71
2023/03/07 12:28:14;;;;;;;6.30;1.15;;;6.30;99.90;;;;;;5040011;28;20097;-69
2023/03/07 12:30:55;;;;;;;8.70;1.45;;;6.50;99.90;;;;;;5042589;28;20038;-69
2023/03/07 12:33:48;;;;;;;6.50;1.00;;;6.70;99.90;;;;;;5037142;28;20082;-72
2023/03/07 12:36:27;;;;;;;7.22;1.30;;;6.90;99.90;;;;;;5038745;28;20037;-69
2023/03/07 12:39:13;;;;;;;6.75;1.30;;;7.30;99.90;;;;;;5037243;28;20030;-71
2023/03/07 12:41:48;;;;;;;9.75;1.20;;;7.70;99.90;;;;;;5036937;28;20034;-70
2023/03/07 12:44:26;;;;;;;7.82;1.45;;;8.20;99.90;;;;;;5038608;28;20048;-70
2023/03/07 12:47:22;;;;;;;14.60;1.73;;;8.50;99.90;;;;;;5035978;28;20075;-70
2023/03/07 12:50:02;;;;;;;5.97;1.35;;;8.80;99.90;;;;;;5027238;28;20041;-71
2023/03/07 12:52:31;;;;;;;7.50;1.20;;;9.20;99.90;;;;;;5037742;28;20072;-72
2023/03/07 12:55:20;;;;;;;7.53;1.20;;;9.40;99.90;;;;;;5035672;28;20567;-68
2023/03/07 12:58:02;;;;;;;6.93;1.10;;;9.30;99.90;;;;;;5039736;28;20028;-68
2023/03/07 13:00:30;;;;;;;9.77;1.50;;;9.10;99.90;;;;;;5039360;28;20035;-68